createdAt,value
2023-05-14T00:01:14.553Z,12.04
2023-05-14T00:06:36.850Z,11.92
2023-05-14T00:11:59.215Z,11.76
2023-05-14T00:17:21.561Z,11.57
2023-05-14T00:22:44.457Z,11.39
2023-05-14T00:28:07.533Z,11.21
2023-05-14T00:33:30.294Z,11.03
2023-05-14T00:38:52.655Z,10.85
2023-05-14T00:44:14.960Z,10.74
2023-05-14T00:49:39.219Z,10.76
2023-05-14T00:55:02.092Z,10.81
2023-05-14T01:00:25.986Z,10.78
2023-05-14T01:06:18.295Z,10.85
2023-05-14T01:12:06.545Z,10.79
2023-05-14T01:17:33.474Z,10.64
2023-05-14T01:22:56.348Z,10.30
2023-05-14T01:28:30.163Z,10.20
2023-05-14T01:33:54.592Z,10.11
2023-05-14T01:39:18.582Z,9.91
2023-05-14T01:44:41.331Z,9.87
2023-05-14T01:50:03.754Z,9.57
2023-05-14T01:55:26.673Z,9.44
2023-05-14T02:00:49.838Z,9.69
2023-05-14T02:06:12.203Z,9.65
2023-05-14T02:11:34.456Z,9.79
2023-05-14T02:16:57.107Z,9.89
2023-05-14T02:22:19.426Z,9.86
2023-05-14T02:27:41.694Z,9.82
2023-05-14T02:33:04.099Z,9.71
2023-05-14T02:38:27.220Z,9.59
2023-05-14T02:43:49.493Z,9.49
2023-05-14T02:49:11.836Z,9.38
2023-05-14T02:54:34.157Z,9.40
2023-05-14T02:59:56.568Z,9.40
2023-05-14T03:05:19.490Z,9.44
2023-05-14T03:10:41.903Z,9.39
2023-05-14T03:16:04.692Z,9.32
2023-05-14T03:21:27.614Z,9.28
2023-05-14T03:26:49.902Z,9.27
2023-05-14T03:32:12.918Z,9.28
2023-05-14T03:37:35.203Z,9.30
2023-05-14T03:42:57.594Z,9.25
2023-05-14T03:48:20.214Z,9.25
2023-05-14T03:53:42.829Z,9.34
2023-05-14T03:59:05.564Z,9.62
2023-05-14T04:04:27.838Z,9.80
2023-05-14T04:09:50.152Z,9.90
2023-05-14T04:15:13.582Z,10.10
2023-05-14T04:20:35.996Z,10.26
2023-05-14T04:25:58.330Z,10.38
2023-05-14T04:31:20.813Z,10.58
2023-05-14T04:36:43.145Z,10.85
2023-05-14T04:42:05.453Z,11.03
2023-05-14T04:47:27.837Z,11.17
2023-05-14T04:52:51.092Z,11.38
2023-05-14T04:58:13.517Z,11.52
2023-05-14T05:03:35.897Z,11.69
2023-05-14T05:08:59.072Z,11.80
2023-05-14T05:14:22.198Z,11.92
2023-05-14T05:19:44.785Z,12.11
2023-05-14T05:25:08.839Z,12.30
2023-05-14T05:30:31.935Z,12.44
2023-05-14T05:35:54.305Z,12.67
2023-05-14T05:41:16.626Z,12.97
2023-05-14T05:46:38.951Z,13.38
2023-05-14T05:52:01.582Z,13.85
2023-05-14T05:57:26.287Z,14.19
2023-05-14T06:02:48.259Z,14.40
2023-05-14T06:08:10.968Z,14.75
2023-05-14T06:13:33.790Z,15.13
2023-05-14T06:18:56.274Z,15.57
2023-05-14T06:24:20.661Z,15.74
2023-05-14T06:29:43.054Z,15.94
2023-05-14T06:35:05.341Z,16.04
2023-05-14T06:40:27.898Z,15.96
2023-05-14T06:45:50.190Z,15.86
2023-05-14T06:51:13.519Z,15.96
2023-05-14T06:56:35.746Z,16.10
2023-05-14T07:01:58.110Z,16.29
2023-05-14T07:07:21.502Z,16.55
2023-05-14T07:12:44.375Z,16.45
2023-05-14T07:18:06.716Z,16.62
2023-05-14T07:23:29.081Z,16.60
2023-05-14T07:28:52.468Z,16.98
2023-05-14T07:34:14.816Z,17.23
2023-05-14T07:39:37.270Z,17.56
2023-05-14T07:45:00.685Z,17.80
2023-05-14T07:50:24.710Z,18.15
2023-05-14T07:55:48.922Z,18.39
2023-05-14T08:01:11.965Z,18.52
2023-05-14T08:06:34.299Z,18.70
2023-05-14T08:11:56.510Z,18.80
2023-05-14T08:17:19.522Z,19.06
2023-05-14T08:22:41.881Z,19.34
2023-05-14T08:28:04.115Z,19.56
2023-05-14T08:33:26.350Z,19.71
2023-05-14T08:38:50.236Z,19.87
2023-05-14T08:44:40.446Z,20.06
2023-05-14T08:50:12.160Z,20.38
2023-05-14T08:55:35.026Z,20.69
2023-05-14T09:00:57.328Z,20.95
2023-05-14T09:06:20.320Z,21.26
2023-05-14T09:11:44.333Z,21.37
2023-05-14T09:17:08.464Z,21.62
2023-05-14T09:22:34.894Z,21.74
2023-05-14T09:27:59.156Z,21.80
2023-05-14T09:33:21.651Z,22.36
2023-05-14T09:38:45.960Z,22.83
2023-05-14T09:44:09.024Z,22.97
2023-05-14T09:49:31.857Z,23.42
2023-05-14T09:54:54.724Z,23.37
2023-05-14T10:00:17.518Z,23.56
2023-05-14T10:05:44.319Z,23.84
2023-05-14T10:11:12.917Z,24.54
2023-05-14T10:16:52.435Z,24.31
2023-05-14T10:22:18.250Z,24.17
2023-05-14T10:27:41.025Z,24.25
2023-05-14T10:33:16.974Z,25.61
2023-05-14T10:38:47.760Z,25.12
2023-05-14T10:44:11.920Z,24.40
2023-05-14T10:49:42.892Z,22.75
2023-05-14T10:55:10.569Z,24.07
2023-05-14T11:00:35.092Z,23.47
2023-05-14T11:05:58.974Z,22.63
2023-05-14T11:11:22.358Z,23.15
2023-05-14T11:16:46.927Z,22.94
2023-05-14T11:22:09.225Z,22.36
2023-05-14T11:27:32.482Z,21.66
2023-05-14T11:32:58.256Z,21.55
2023-05-14T11:38:24.593Z,21.77
2023-05-14T11:43:48.536Z,22.30
2023-05-14T11:49:11.632Z,21.98
2023-05-14T11:54:34.304Z,21.60
2023-05-14T11:59:59.612Z,21.62
2023-05-14T12:05:23.617Z,22.35
2023-05-14T12:10:50.118Z,22.83
2023-05-14T12:16:17.952Z,22.57
2023-05-14T12:21:41.011Z,22.39
2023-05-14T12:27:07.284Z,22.21
2023-05-14T12:32:31.847Z,22.78
2023-05-14T12:37:54.599Z,22.93
2023-05-14T12:43:16.858Z,22.07
2023-05-14T12:48:39.168Z,21.78
2023-05-14T12:54:01.568Z,21.79
2023-05-14T12:59:24.353Z,22.15
2023-05-14T13:04:46.662Z,22.30
2023-05-14T13:10:09.122Z,23.52
2023-05-14T13:15:32.988Z,23.72
2023-05-14T13:20:55.400Z,22.64
2023-05-14T13:26:18.081Z,22.42
2023-05-14T13:31:40.864Z,22.17
2023-05-14T13:37:03.187Z,22.04
2023-05-14T13:42:25.413Z,21.92
2023-05-14T13:47:48.771Z,21.84
2023-05-14T13:53:11.647Z,22.64
2023-05-14T13:58:34.288Z,24.54
2023-05-14T14:03:56.549Z,24.30
2023-05-14T14:09:18.791Z,23.40
2023-05-14T14:14:41.386Z,23.25
2023-05-14T14:20:05.289Z,22.63
2023-05-14T14:25:27.766Z,22.76
2023-05-14T14:30:51.251Z,22.42
2023-05-14T14:36:13.779Z,23.52
2023-05-14T14:41:36.293Z,23.39
2023-05-14T14:46:58.894Z,24.41
2023-05-14T14:52:21.196Z,25.37
2023-05-14T14:57:43.524Z,24.89
2023-05-14T15:03:05.883Z,25.57
2023-05-14T15:08:32.445Z,25.14
2023-05-14T15:13:54.689Z,23.41
2023-05-14T15:19:17.458Z,22.67
2023-05-14T15:24:40.068Z,22.40
2023-05-14T15:30:02.568Z,22.18
2023-05-14T15:35:26.471Z,22.19
2023-05-14T15:40:50.669Z,21.94
2023-05-14T15:46:13.146Z,21.95
2023-05-14T15:51:35.642Z,22.13
2023-05-14T15:56:58.118Z,22.11
2023-05-14T16:02:22.038Z,22.95
2023-05-14T16:07:44.437Z,22.48
2023-05-14T16:13:06.761Z,22.14
2023-05-14T16:18:30.018Z,21.86
2023-05-14T16:23:52.387Z,21.56
2023-05-14T16:29:14.734Z,21.46
2023-05-14T16:34:37.014Z,21.30
2023-05-14T16:40:00.306Z,21.28
2023-05-14T16:45:23.303Z,21.21
2023-05-14T16:50:46.326Z,21.19
2023-05-14T16:56:08.606Z,21.07
2023-05-14T17:01:30.987Z,21.02
2023-05-14T17:06:53.713Z,20.92
2023-05-14T17:12:16.293Z,20.80
2023-05-14T17:17:38.731Z,20.72
2023-05-14T17:23:01.178Z,20.59
2023-05-14T17:28:24.859Z,20.52
2023-05-14T17:33:47.348Z,20.33
2023-05-14T17:39:09.706Z,20.19
2023-05-14T17:44:32.429Z,19.95
2023-05-14T17:49:54.779Z,19.65
2023-05-14T17:55:18.018Z,19.50
2023-05-14T18:00:41.582Z,19.36
2023-05-14T18:06:05.074Z,19.16
2023-05-14T18:11:29.080Z,18.95
2023-05-14T18:16:51.814Z,18.68
2023-05-14T18:22:14.178Z,18.48
2023-05-14T18:27:38.257Z,18.34
2023-05-14T18:33:01.340Z,18.18
2023-05-14T18:38:23.982Z,17.93
2023-05-14T18:43:46.460Z,17.69
2023-05-14T18:49:09.140Z,17.38
2023-05-14T18:54:31.441Z,17.15
2023-05-14T18:59:53.722Z,17.02
2023-05-14T19:05:16.196Z,16.95
2023-05-14T19:10:38.644Z,16.81
2023-05-14T19:16:01.698Z,16.59
2023-05-14T19:21:24.180Z,16.40
2023-05-14T19:26:47.417Z,16.29
2023-05-14T19:32:10.269Z,16.11
2023-05-14T19:37:32.846Z,16.05
2023-05-14T19:42:55.557Z,15.95
2023-05-14T19:48:21.415Z,15.83
2023-05-14T19:53:43.766Z,15.81
2023-05-14T19:59:06.121Z,15.74
2023-05-14T20:04:28.557Z,15.58
2023-05-14T20:09:51.303Z,15.39
2023-05-14T20:15:13.991Z,15.27
2023-05-14T20:20:36.900Z,15.26
2023-05-14T20:26:01.432Z,15.23
2023-05-14T20:31:24.487Z,15.13
2023-05-14T20:36:46.933Z,14.61
2023-05-14T20:42:09.461Z,14.71
2023-05-14T20:47:34.101Z,14.44
2023-05-14T20:52:57.253Z,14.27
2023-05-14T20:58:20.698Z,14.07
2023-05-14T21:03:44.030Z,13.86
2023-05-14T21:09:06.833Z,13.60
2023-05-14T21:14:29.309Z,13.62
2023-05-14T21:19:52.519Z,13.67
2023-05-14T21:25:15.169Z,13.70
2023-05-14T21:30:37.717Z,13.73
2023-05-14T21:36:00.479Z,13.78
2023-05-14T21:41:23.073Z,13.66
2023-05-14T21:46:45.885Z,13.53
2023-05-14T21:52:08.166Z,13.39
2023-05-14T21:57:34.130Z,13.29
2023-05-14T22:02:54.885Z,13.16
2023-05-14T22:08:18.391Z,13.20
2023-05-14T22:13:41.608Z,13.09
2023-05-14T22:19:05.344Z,13.08
2023-05-14T22:24:28.017Z,12.92
2023-05-14T22:29:50.542Z,12.70
2023-05-14T22:35:13.044Z,12.54
2023-05-14T22:40:35.554Z,12.50
2023-05-14T22:45:59.488Z,12.60
2023-05-14T22:51:22.228Z,12.66
2023-05-14T22:56:44.756Z,12.76
2023-05-14T23:02:07.317Z,12.87
2023-05-14T23:07:29.917Z,12.90
2023-05-14T23:12:52.921Z,13.15
2023-05-14T23:18:15.526Z,13.29
2023-05-14T23:23:38.013Z,13.33
2023-05-14T23:29:00.309Z,13.37
2023-05-14T23:34:22.634Z,13.55
2023-05-14T23:39:45.310Z,13.65
2023-05-14T23:45:07.699Z,13.69
2023-05-14T23:50:30.431Z,13.78
2023-05-14T23:55:53.871Z,13.73
